sensor_id;sensor_type;location;lat;lon;timestamp;temperature;humidity
37088;DHT22;23002;52.676;6.432;2024-01-06T00:01:17;6.30;99.90
37088;DHT22;23002;52.676;6.432;2024-01-06T00:21:11;6.00;99.90
37088;DHT22;23002;52.676;6.432;2024-01-06T00:23:42;6.10;99.90
37088;DHT22;23002;52.676;6.432;2024-01-06T00:26:12;6.10;99.90
37088;DHT22;23002;52.676;6.432;2024-01-06T00:28:39;6.30;99.90
37088;DHT22;23002;52.676;6.432;2024-01-06T00:31:06;6.30;99.90
37088;DHT22;23002;52.676;6.432;2024-01-06T00:33:33;6.00;99.90
37088;DHT22;23002;52.676;6.432;2024-01-06T00:36:02;5.80;99.90
37088;DHT22;23002;52.676;6.432;2024-01-06T00:38:31;5.80;99.90
37088;DHT22;23002;52.676;6.432;2024-01-06T00:40:58;6.10;99.90
37088;DHT22;23002;52.676;6.432;2024-01-06T00:45:52;6.00;99.90
37088;DHT22;23002;52.676;6.432;2024-01-06T00:48:19;6.20;99.90
37088;DHT22;23002;52.676;6.432;2024-01-06T01:08:07;5.90;99.90
37088;DHT22;23002;52.676;6.432;2024-01-06T01:25:23;6.20;99.90
37088;DHT22;23002;52.676;6.432;2024-01-06T01:27:49;6.20;99.90
37088;DHT22;23002;52.676;6.432;2024-01-06T01:30:16;6.00;99.90
37088;DHT22;23002;52.676;6.432;2024-01-06T01:32:43;5.80;99.90
37088;DHT22;23002;52.676;6.432;2024-01-06T01:40:06;5.80;99.90
37088;DHT22;23002;52.676;6.432;2024-01-06T02:02:21;5.20;99.90
37088;DHT22;23002;52.676;6.432;2024-01-06T02:04:48;5.30;99.90
37088;DHT22;23002;52.676;6.432;2024-01-06T02:09:43;5.20;99.90
37088;DHT22;23002;52.676;6.432;2024-01-06T02:12:10;5.50;99.90
37088;DHT22;23002;52.676;6.432;2024-01-06T02:14:37;5.60;99.90
37088;DHT22;23002;52.676;6.432;2024-01-06T02:19:31;5.30;99.90
37088;DHT22;23002;52.676;6.432;2024-01-06T02:21:58;5.30;99.90
37088;DHT22;23002;52.676;6.432;2024-01-06T02:26:52;4.70;99.90
37088;DHT22;23002;52.676;6.432;2024-01-06T02:31:45;4.70;99.90
37088;DHT22;23002;52.676;6.432;2024-01-06T02:34:12;4.80;99.90
37088;DHT22;23002;52.676;6.432;2024-01-06T02:36:39;4.50;99.90
37088;DHT22;23002;52.676;6.432;2024-01-06T02:39:06;4.70;99.90
37088;DHT22;23002;52.676;6.432;2024-01-06T02:44:00;5.20;99.90
37088;DHT22;23002;52.676;6.432;2024-01-06T02:46:29;5.00;99.90
37088;DHT22;23002;52.676;6.432;2024-01-06T02:48:56;5.10;99.90
37088;DHT22;23002;52.676;6.432;2024-01-06T02:51:23;4.90;99.90
37088;DHT22;23002;52.676;6.432;2024-01-06T02:53:49;5.20;99.90
37088;DHT22;23002;52.676;6.432;2024-01-06T02:56:16;4.70;99.90
37088;DHT22;23002;52.676;6.432;2024-01-06T03:01:11;5.00;99.90
37088;DHT22;23002;52.676;6.432;2024-01-06T03:30:59;5.00;99.90
37088;DHT22;23002;52.676;6.432;2024-01-06T04:18:08;5.10;99.90
37088;DHT22;23002;52.676;6.432;2024-01-06T04:20:36;5.20;99.90
37088;DHT22;23002;52.676;6.432;2024-01-06T04:27:58;5.00;99.90
37088;DHT22;23002;52.676;6.432;2024-01-06T04:30:24;4.90;99.90
37088;DHT22;23002;52.676;6.432;2024-01-06T04:52:44;5.20;99.90
37088;DHT22;23002;52.676;6.432;2024-01-06T05:02:34;5.40;99.90
37088;DHT22;23002;52.676;6.432;2024-01-06T05:05:01;4.80;99.90
37088;DHT22;23002;52.676;6.432;2024-01-06T05:07:27;4.70;99.90
37088;DHT22;23002;52.676;6.432;2024-01-06T05:14:50;5.10;99.90
37088;DHT22;23002;52.676;6.432;2024-01-06T05:22:13;4.90;99.90
37088;DHT22;23002;52.676;6.432;2024-01-06T05:24:40;5.20;99.90
37088;DHT22;23002;52.676;6.432;2024-01-06T05:27:07;5.20;99.90
37088;DHT22;23002;52.676;6.432;2024-01-06T05:29:37;5.50;99.90
37088;DHT22;23002;52.676;6.432;2024-01-06T05:32:04;5.10;99.90
37088;DHT22;23002;52.676;6.432;2024-01-06T05:39:26;4.20;99.90
37088;DHT22;23002;52.676;6.432;2024-01-06T05:41:53;4.40;99.90
37088;DHT22;23002;52.676;6.432;2024-01-06T05:44:19;4.60;99.90
37088;DHT22;23002;52.676;6.432;2024-01-06T05:46:46;4.40;99.90
37088;DHT22;23002;52.676;6.432;2024-01-06T05:49:13;4.50;99.90
37088;DHT22;23002;52.676;6.432;2024-01-06T05:54:12;4.60;99.90
37088;DHT22;23002;52.676;6.432;2024-01-06T05:59:11;4.70;99.90
37088;DHT22;23002;52.676;6.432;2024-01-06T06:01:37;4.70;99.90
37088;DHT22;23002;52.676;6.432;2024-01-06T06:06:31;5.00;99.90
37088;DHT22;23002;52.676;6.432;2024-01-06T06:08:59;4.80;99.90
37088;DHT22;23002;52.676;6.432;2024-01-06T06:11:26;4.40;99.90
37088;DHT22;23002;52.676;6.432;2024-01-06T06:13:53;4.00;99.90
37088;DHT22;23002;52.676;6.432;2024-01-06T06:16:20;4.00;99.90
37088;DHT22;23002;52.676;6.432;2024-01-06T06:18:47;4.10;99.90
37088;DHT22;23002;52.676;6.432;2024-01-06T06:21:14;4.00;99.90
37088;DHT22;23002;52.676;6.432;2024-01-06T06:23:40;4.60;99.90
37088;DHT22;23002;52.676;6.432;2024-01-06T06:28:38;4.50;99.90
37088;DHT22;23002;52.676;6.432;2024-01-06T06:33:33;4.30;99.90
37088;DHT22;23002;52.676;6.432;2024-01-06T06:43:28;4.10;99.90
37088;DHT22;23002;52.676;6.432;2024-01-06T06:53:21;4.10;99.90
37088;DHT22;23002;52.676;6.432;2024-01-06T06:55:48;4.30;99.90
37088;DHT22;23002;52.676;6.432;2024-01-06T06:58:15;4.10;99.90
37088;DHT22;23002;52.676;6.432;2024-01-06T07:00:42;4.00;99.90
37088;DHT22;23002;52.676;6.432;2024-01-06T07:03:09;4.20;99.90
37088;DHT22;23002;52.676;6.432;2024-01-06T07:05:36;4.00;99.90
37088;DHT22;23002;52.676;6.432;2024-01-06T07:08:03;4.20;99.90
37088;DHT22;23002;52.676;6.432;2024-01-06T07:10:30;4.10;99.90
37088;DHT22;23002;52.676;6.432;2024-01-06T07:15:24;4.00;99.90
37088;DHT22;23002;52.676;6.432;2024-01-06T07:22:46;4.10;99.90
37088;DHT22;23002;52.676;6.432;2024-01-06T07:25:13;4.00;99.90
37088;DHT22;23002;52.676;6.432;2024-01-06T07:35:04;3.80;99.90
37088;DHT22;23002;52.676;6.432;2024-01-06T07:40:01;3.90;99.90
37088;DHT22;23002;52.676;6.432;2024-01-06T07:42:28;4.00;99.90
37088;DHT22;23002;52.676;6.432;2024-01-06T07:44:55;4.00;99.90
37088;DHT22;23002;52.676;6.432;2024-01-06T07:47:22;3.90;99.90
37088;DHT22;23002;52.676;6.432;2024-01-06T07:52:16;4.00;99.90
37088;DHT22;23002;52.676;6.432;2024-01-06T07:54:43;3.80;99.90
37088;DHT22;23002;52.676;6.432;2024-01-06T07:57:10;3.80;99.90
37088;DHT22;23002;52.676;6.432;2024-01-06T08:02:05;3.90;99.90
37088;DHT22;23002;52.676;6.432;2024-01-06T08:04:32;3.90;99.90
37088;DHT22;23002;52.676;6.432;2024-01-06T08:06:59;3.90;99.90
37088;DHT22;23002;52.676;6.432;2024-01-06T08:09:26;4.10;99.90
37088;DHT22;23002;52.676;6.432;2024-01-06T08:11:53;4.20;99.90
37088;DHT22;23002;52.676;6.432;2024-01-06T08:14:20;4.10;99.90
37088;DHT22;23002;52.676;6.432;2024-01-06T08:16:46;3.90;99.90
37088;DHT22;23002;52.676;6.432;2024-01-06T08:19:13;3.80;99.90
37088;DHT22;23002;52.676;6.432;2024-01-06T08:21:40;3.90;99.90
37088;DHT22;23002;52.676;6.432;2024-01-06T08:24:08;4.00;99.90
37088;DHT22;23002;52.676;6.432;2024-01-06T08:26:34;4.00;99.90
37088;DHT22;23002;52.676;6.432;2024-01-06T08:29:01;3.70;99.90
37088;DHT22;23002;52.676;6.432;2024-01-06T08:31:28;3.80;99.90
37088;DHT22;23002;52.676;6.432;2024-01-06T08:33:55;4.20;99.90
37088;DHT22;23002;52.676;6.432;2024-01-06T08:36:22;4.10;99.90
37088;DHT22;23002;52.676;6.432;2024-01-06T08:38:49;4.00;99.90
37088;DHT22;23002;52.676;6.432;2024-01-06T08:41:15;4.40;99.90
37088;DHT22;23002;52.676;6.432;2024-01-06T08:43:42;4.30;99.90
37088;DHT22;23002;52.676;6.432;2024-01-06T08:46:09;4.30;99.90
37088;DHT22;23002;52.676;6.432;2024-01-06T08:48:36;4.20;99.90
37088;DHT22;23002;52.676;6.432;2024-01-06T08:51:03;4.10;99.90
37088;DHT22;23002;52.676;6.432;2024-01-06T08:53:30;4.10;99.90
37088;DHT22;23002;52.676;6.432;2024-01-06T08:55:57;4.00;99.90
37088;DHT22;23002;52.676;6.432;2024-01-06T08:58:23;4.40;99.90
37088;DHT22;23002;52.676;6.432;2024-01-06T09:00:50;4.40;99.90
37088;DHT22;23002;52.676;6.432;2024-01-06T09:03:20;4.40;99.90
37088;DHT22;23002;52.676;6.432;2024-01-06T09:05:55;4.80;99.90
37088;DHT22;23002;52.676;6.432;2024-01-06T09:08:22;4.40;99.90
37088;DHT22;23002;52.676;6.432;2024-01-06T09:10:50;4.60;99.90
37088;DHT22;23002;52.676;6.432;2024-01-06T09:13:24;4.30;99.90
37088;DHT22;23002;52.676;6.432;2024-01-06T09:15:51;4.40;99.90
37088;DHT22;23002;52.676;6.432;2024-01-06T09:18:18;3.80;99.90
37088;DHT22;23002;52.676;6.432;2024-01-06T09:20:45;3.80;99.90
37088;DHT22;23002;52.676;6.432;2024-01-06T09:23:15;3.90;99.90
37088;DHT22;23002;52.676;6.432;2024-01-06T09:25:42;4.10;99.90
37088;DHT22;23002;52.676;6.432;2024-01-06T09:30:37;3.80;99.90
37088;DHT22;23002;52.676;6.432;2024-01-06T09:33:04;4.10;99.90
37088;DHT22;23002;52.676;6.432;2024-01-06T09:35:31;3.90;99.90
37088;DHT22;23002;52.676;6.432;2024-01-06T09:37:59;4.20;99.90
37088;DHT22;23002;52.676;6.432;2024-01-06T09:40:26;4.10;99.90
37088;DHT22;23002;52.676;6.432;2024-01-06T09:42:53;4.10;99.90
37088;DHT22;23002;52.676;6.432;2024-01-06T09:45:21;4.20;99.90
37088;DHT22;23002;52.676;6.432;2024-01-06T09:47:50;4.20;99.90
37088;DHT22;23002;52.676;6.432;2024-01-06T09:50:21;4.40;99.90
37088;DHT22;23002;52.676;6.432;2024-01-06T09:55:25;3.60;99.90
37088;DHT22;23002;52.676;6.432;2024-01-06T10:00:21;3.50;99.90
37088;DHT22;23002;52.676;6.432;2024-01-06T10:02:49;3.30;99.90
37088;DHT22;23002;52.676;6.432;2024-01-06T10:05:18;3.50;99.90
37088;DHT22;23002;52.676;6.432;2024-01-06T10:10:14;4.00;99.90
37088;DHT22;23002;52.676;6.432;2024-01-06T10:12:42;4.40;99.90
37088;DHT22;23002;52.676;6.432;2024-01-06T10:15:10;4.40;99.90
37088;DHT22;23002;52.676;6.432;2024-01-06T10:17:41;4.00;99.90
37088;DHT22;23002;52.676;6.432;2024-01-06T10:20:10;4.10;99.90
37088;DHT22;23002;52.676;6.432;2024-01-06T10:22:40;4.00;99.90
37088;DHT22;23002;52.676;6.432;2024-01-06T10:25:08;4.10;99.90
37088;DHT22;23002;52.676;6.432;2024-01-06T10:27:39;4.00;99.90
37088;DHT22;23002;52.676;6.432;2024-01-06T10:30:07;3.70;99.90
37088;DHT22;23002;52.676;6.432;2024-01-06T10:32:35;3.70;99.90
37088;DHT22;23002;52.676;6.432;2024-01-06T10:35:03;3.80;99.90
37088;DHT22;23002;52.676;6.432;2024-01-06T10:37:32;4.00;99.90
37088;DHT22;23002;52.676;6.432;2024-01-06T10:42:37;4.20;99.90
37088;DHT22;23002;52.676;6.432;2024-01-06T10:45:11;3.80;99.90
37088;DHT22;23002;52.676;6.432;2024-01-06T10:47:41;4.00;99.90
37088;DHT22;23002;52.676;6.432;2024-01-06T10:50:12;4.70;99.90
37088;DHT22;23002;52.676;6.432;2024-01-06T10:52:41;4.80;99.90
37088;DHT22;23002;52.676;6.432;2024-01-06T10:55:10;4.60;99.90
37088;DHT22;23002;52.676;6.432;2024-01-06T10:57:37;4.40;99.90
37088;DHT22;23002;52.676;6.432;2024-01-06T11:00:05;4.50;99.90
37088;DHT22;23002;52.676;6.432;2024-01-06T11:02:33;4.60;99.90
37088;DHT22;23002;52.676;6.432;2024-01-06T11:05:00;4.70;99.90
37088;DHT22;23002;52.676;6.432;2024-01-06T11:07:28;4.80;99.90
37088;DHT22;23002;52.676;6.432;2024-01-06T11:10:09;4.70;99.90
37088;DHT22;23002;52.676;6.432;2024-01-06T11:12:38;4.60;99.90
37088;DHT22;23002;52.676;6.432;2024-01-06T11:15:05;4.40;99.90
37088;DHT22;23002;52.676;6.432;2024-01-06T11:22:50;4.20;99.90
37088;DHT22;23002;52.676;6.432;2024-01-06T11:25:19;4.30;99.90
37088;DHT22;23002;52.676;6.432;2024-01-06T11:27:48;4.00;99.90
37088;DHT22;23002;52.676;6.432;2024-01-06T11:30:27;4.00;99.90
37088;DHT22;23002;52.676;6.432;2024-01-06T11:32:56;4.10;99.90
37088;DHT22;23002;52.676;6.432;2024-01-06T11:35:26;4.30;99.90
37088;DHT22;23002;52.676;6.432;2024-01-06T11:37:56;4.50;99.90
37088;DHT22;23002;52.676;6.432;2024-01-06T11:40:29;4.70;99.90
37088;DHT22;23002;52.676;6.432;2024-01-06T11:42:58;4.80;99.90
37088;DHT22;23002;52.676;6.432;2024-01-06T11:45:25;4.70;99.90
37088;DHT22;23002;52.676;6.432;2024-01-06T11:47:55;4.70;99.90
37088;DHT22;23002;52.676;6.432;2024-01-06T11:50:23;4.50;99.90
37088;DHT22;23002;52.676;6.432;2024-01-06T11:52:50;4.30;99.90
37088;DHT22;23002;52.676;6.432;2024-01-06T11:55:18;4.20;99.90
37088;DHT22;23002;52.676;6.432;2024-01-06T11:57:45;4.20;99.90
37088;DHT22;23002;52.676;6.432;2024-01-06T12:00:14;4.90;99.90
37088;DHT22;23002;52.676;6.432;2024-01-06T12:02:41;4.90;99.90
37088;DHT22;23002;52.676;6.432;2024-01-06T12:05:17;5.00;99.90
37088;DHT22;23002;52.676;6.432;2024-01-06T12:10:22;5.00;99.90
37088;DHT22;23002;52.676;6.432;2024-01-06T12:15:22;4.50;99.90
37088;DHT22;23002;52.676;6.432;2024-01-06T12:17:51;4.60;99.90
37088;DHT22;23002;52.676;6.432;2024-01-06T12:20:17;4.70;99.90
37088;DHT22;23002;52.676;6.432;2024-01-06T12:22:44;4.20;99.90
37088;DHT22;23002;52.676;6.432;2024-01-06T12:25:11;4.20;99.90
37088;DHT22;23002;52.676;6.432;2024-01-06T12:27:43;4.40;99.90
37088;DHT22;23002;52.676;6.432;2024-01-06T12:30:18;4.40;99.90
37088;DHT22;23002;52.676;6.432;2024-01-06T12:32:47;4.50;99.90
37088;DHT22;23002;52.676;6.432;2024-01-06T12:35:16;4.50;99.90
37088;DHT22;23002;52.676;6.432;2024-01-06T12:37:44;4.60;99.90
37088;DHT22;23002;52.676;6.432;2024-01-06T12:40:12;4.90;99.90
37088;DHT22;23002;52.676;6.432;2024-01-06T12:42:40;4.50;99.90
37088;DHT22;23002;52.676;6.432;2024-01-06T12:45:07;4.40;99.90
37088;DHT22;23002;52.676;6.432;2024-01-06T12:47:34;4.20;99.90
37088;DHT22;23002;52.676;6.432;2024-01-06T12:50:01;4.50;99.90
37088;DHT22;23002;52.676;6.432;2024-01-06T12:52:28;4.50;99.90
37088;DHT22;23002;52.676;6.432;2024-01-06T12:54:54;4.40;99.90
37088;DHT22;23002;52.676;6.432;2024-01-06T12:59:48;3.80;99.90
37088;DHT22;23002;52.676;6.432;2024-01-06T13:02:15;4.10;99.90
37088;DHT22;23002;52.676;6.432;2024-01-06T13:07:10;4.30;99.90
37088;DHT22;23002;52.676;6.432;2024-01-06T13:09:37;4.60;99.90
37088;DHT22;23002;52.676;6.432;2024-01-06T13:12:04;4.60;99.90
37088;DHT22;23002;52.676;6.432;2024-01-06T13:14:31;4.70;99.90
37088;DHT22;23002;52.676;6.432;2024-01-06T13:16:58;5.00;99.90
37088;DHT22;23002;52.676;6.432;2024-01-06T13:19:25;5.10;99.90
37088;DHT22;23002;52.676;6.432;2024-01-06T13:21:52;5.10;99.90
37088;DHT22;23002;52.676;6.432;2024-01-06T13:24:21;5.20;99.90
37088;DHT22;23002;52.676;6.432;2024-01-06T13:26:48;5.40;99.90
37088;DHT22;23002;52.676;6.432;2024-01-06T13:29:15;5.30;99.90
37088;DHT22;23002;52.676;6.432;2024-01-06T13:31:41;5.00;99.90
37088;DHT22;23002;52.676;6.432;2024-01-06T13:34:09;4.80;99.90
37088;DHT22;23002;52.676;6.432;2024-01-06T13:36:36;4.50;99.90
37088;DHT22;23002;52.676;6.432;2024-01-06T13:39:03;4.60;99.90
37088;DHT22;23002;52.676;6.432;2024-01-06T13:41:30;5.00;99.90
37088;DHT22;23002;52.676;6.432;2024-01-06T13:43:57;4.90;99.90
37088;DHT22;23002;52.676;6.432;2024-01-06T13:46:24;4.80;99.90
37088;DHT22;23002;52.676;6.432;2024-01-06T13:48:51;4.40;99.90
37088;DHT22;23002;52.676;6.432;2024-01-06T13:51:18;4.30;99.90
37088;DHT22;23002;52.676;6.432;2024-01-06T13:53:45;4.40;99.90
37088;DHT22;23002;52.676;6.432;2024-01-06T13:56:12;4.70;99.90
37088;DHT22;23002;52.676;6.432;2024-01-06T13:58:38;4.60;99.90
37088;DHT22;23002;52.676;6.432;2024-01-06T14:01:05;4.70;99.90
37088;DHT22;23002;52.676;6.432;2024-01-06T14:03:32;4.30;99.90
37088;DHT22;23002;52.676;6.432;2024-01-06T14:05:59;4.70;99.90
37088;DHT22;23002;52.676;6.432;2024-01-06T14:08:26;4.50;99.90
37088;DHT22;23002;52.676;6.432;2024-01-06T14:10:53;4.60;99.90
37088;DHT22;23002;52.676;6.432;2024-01-06T14:13:20;4.50;99.90
37088;DHT22;23002;52.676;6.432;2024-01-06T14:15:46;4.60;99.90
37088;DHT22;23002;52.676;6.432;2024-01-06T14:18:13;4.70;99.90
37088;DHT22;23002;52.676;6.432;2024-01-06T14:20:43;4.70;99.90
37088;DHT22;23002;52.676;6.432;2024-01-06T14:23:12;4.70;99.90
37088;DHT22;23002;52.676;6.432;2024-01-06T14:25:39;4.80;99.90
37088;DHT22;23002;52.676;6.432;2024-01-06T14:28:06;4.40;99.90
37088;DHT22;23002;52.676;6.432;2024-01-06T14:30:33;4.40;99.90
37088;DHT22;23002;52.676;6.432;2024-01-06T14:33:00;4.80;99.90
37088;DHT22;23002;52.676;6.432;2024-01-06T14:35:27;4.80;99.90
37088;DHT22;23002;52.676;6.432;2024-01-06T14:37:53;4.30;99.90
37088;DHT22;23002;52.676;6.432;2024-01-06T14:40:20;4.50;99.90
37088;DHT22;23002;52.676;6.432;2024-01-06T14:42:47;4.70;99.90
37088;DHT22;23002;52.676;6.432;2024-01-06T14:45:15;4.70;99.90
37088;DHT22;23002;52.676;6.432;2024-01-06T14:47:42;4.70;99.90
37088;DHT22;23002;52.676;6.432;2024-01-06T14:50:09;4.30;99.90
37088;DHT22;23002;52.676;6.432;2024-01-06T14:52:36;4.40;99.90
37088;DHT22;23002;52.676;6.432;2024-01-06T14:55:03;4.60;99.90
37088;DHT22;23002;52.676;6.432;2024-01-06T14:57:30;4.50;99.90
37088;DHT22;23002;52.676;6.432;2024-01-06T14:59:57;4.60;99.90
37088;DHT22;23002;52.676;6.432;2024-01-06T15:02:23;4.70;99.90
37088;DHT22;23002;52.676;6.432;2024-01-06T15:04:50;4.60;99.90
37088;DHT22;23002;52.676;6.432;2024-01-06T15:07:17;4.60;99.90
37088;DHT22;23002;52.676;6.432;2024-01-06T15:09:44;4.70;99.90
37088;DHT22;23002;52.676;6.432;2024-01-06T15:12:10;4.60;99.90
37088;DHT22;23002;52.676;6.432;2024-01-06T15:14:37;4.60;99.90
37088;DHT22;23002;52.676;6.432;2024-01-06T15:17:04;4.50;99.90
37088;DHT22;23002;52.676;6.432;2024-01-06T15:19:31;4.40;99.90
37088;DHT22;23002;52.676;6.432;2024-01-06T15:21:58;4.50;99.90
37088;DHT22;23002;52.676;6.432;2024-01-06T15:24:25;3.80;99.90
37088;DHT22;23002;52.676;6.432;2024-01-06T15:44:10;3.70;99.90
37088;DHT22;23002;52.676;6.432;2024-01-06T15:46:37;3.80;99.90
37088;DHT22;23002;52.676;6.432;2024-01-06T15:53:59;4.40;99.90
37088;DHT22;23002;52.676;6.432;2024-01-06T16:01:25;3.80;99.90
37088;DHT22;23002;52.676;6.432;2024-01-06T16:06:20;3.90;99.90
37088;DHT22;23002;52.676;6.432;2024-01-06T16:08:47;4.10;99.90
37088;DHT22;23002;52.676;6.432;2024-01-06T16:11:14;3.80;99.90
37088;DHT22;23002;52.676;6.432;2024-01-06T16:13:40;3.80;99.90
37088;DHT22;23002;52.676;6.432;2024-01-06T16:16:07;3.60;99.90
37088;DHT22;23002;52.676;6.432;2024-01-06T16:28:30;3.80;99.90
37088;DHT22;23002;52.676;6.432;2024-01-06T17:55:10;3.50;99.90
37088;DHT22;23002;52.676;6.432;2024-01-06T18:00:06;3.80;99.90
37088;DHT22;23002;52.676;6.432;2024-01-06T19:02:08;3.00;99.90
